Aviation Digital Data Service (ADDS)

Output produced by METARs form (0903 UTC 19 November 2018)
found at http://www.aviationweather.gov/metar/data/
 
RJEC 190850Z 00000KT 1600 -SHSN FEW001 SCT008 BKN010 00/00 Q1013 RMK 1ST001 3ST008 6ST010 A2992
RJEC 190843Z 00000KT 1500 R34/P2000N -SHSN FEW001 SCT008 BKN010 00/00 Q1013 RMK 1ST001 3ST008 6ST010 A2992
RJEC 190816Z 00000KT 1000 R34/1400U -SHSN BCFG FEW001 SCT003 BKN010 00/M00 Q1012 RMK 2ST001 4ST003 6ST010 A2991
TAF AMD RJEC 190803Z 1908/2012 33005KT 9999 FEW008 BKN025 
     TEMPO 1908/1911 0700 FZFG VV001 
     TEMPO 1911/1915 3000 -SHSN